createdAt,value
2018-06-13T00:02:25.402Z,2.60
2018-06-13T00:04:55.785Z,2.83
2018-06-13T00:07:26.391Z,3.57
2018-06-13T00:09:56.749Z,3.27
2018-06-13T00:12:27.552Z,2.77
2018-06-13T00:14:58.042Z,3.17
2018-06-13T00:17:28.468Z,2.60
2018-06-13T00:19:59.231Z,2.90
2018-06-13T00:22:30.098Z,2.60
2018-06-13T00:25:00.665Z,2.87
2018-06-13T00:27:31.078Z,3.50
2018-06-13T00:30:01.709Z,3.23
2018-06-13T00:32:32.126Z,3.10
2018-06-13T00:35:02.661Z,3.00
2018-06-13T00:37:33.020Z,3.03
2018-06-13T00:40:03.513Z,3.20
2018-06-13T00:42:34.095Z,3.10
2018-06-13T00:45:05.477Z,2.87
2018-06-13T00:47:36.033Z,2.90
2018-06-13T00:50:06.516Z,3.60
2018-06-13T00:52:36.826Z,2.80
2018-06-13T00:55:07.809Z,3.00
2018-06-13T00:57:38.108Z,2.97
2018-06-13T01:00:08.922Z,3.00
2018-06-13T01:02:39.928Z,2.60
2018-06-13T01:05:10.305Z,3.27
2018-06-13T01:07:40.854Z,2.57
2018-06-13T01:10:11.633Z,2.80
2018-06-13T01:12:42.210Z,2.47
2018-06-13T01:15:12.524Z,2.53
2018-06-13T01:17:42.952Z,2.83
2018-06-13T01:20:13.266Z,2.57
2018-06-13T01:22:44.032Z,2.70
2018-06-13T01:25:14.289Z,2.47
2018-06-13T01:27:44.596Z,2.47
2018-06-13T01:30:16.487Z,2.80
2018-06-13T01:32:46.976Z,3.20
2018-06-13T01:35:17.448Z,2.50
2018-06-13T01:37:47.946Z,3.03
2018-06-13T01:40:18.605Z,3.10
2018-06-13T01:42:48.955Z,2.73
2018-06-13T01:45:19.367Z,3.00
2018-06-13T01:47:50.098Z,3.20
2018-06-13T01:50:20.621Z,2.77
2018-06-13T01:52:50.885Z,3.10
2018-06-13T01:55:21.149Z,2.90
2018-06-13T01:57:51.408Z,3.47
2018-06-13T02:00:21.773Z,3.30
2018-06-13T02:02:52.806Z,3.37
2018-06-13T02:05:23.172Z,3.50
2018-06-13T02:07:52.844Z,3.00
2018-06-13T02:10:23.212Z,3.00
2018-06-13T02:12:54.053Z,3.07
2018-06-13T02:15:23.771Z,3.23
2018-06-13T02:17:54.193Z,3.43
2018-06-13T02:20:24.565Z,3.50
2018-06-13T02:22:55.445Z,3.37
2018-06-13T02:25:25.618Z,3.60
2018-06-13T02:27:56.135Z,3.27
2018-06-13T02:30:26.690Z,3.70
2018-06-13T02:32:57.055Z,3.67
2018-06-13T02:35:27.480Z,3.70
2018-06-13T02:37:58.919Z,4.20
2018-06-13T02:40:29.426Z,4.13
2018-06-13T02:42:59.772Z,4.43
2018-06-13T02:45:30.025Z,3.90
2018-06-13T02:48:00.325Z,3.90
2018-06-13T02:50:30.718Z,3.87
2018-06-13T02:53:01.586Z,4.20
2018-06-13T02:55:31.920Z,4.00
2018-06-13T02:58:02.237Z,4.17
2018-06-13T03:00:32.754Z,4.30
2018-06-13T03:03:03.305Z,4.00
2018-06-13T03:05:33.611Z,4.23
2018-06-13T03:08:08.304Z,4.70
2018-06-13T03:10:38.586Z,4.17
2018-06-13T03:13:08.883Z,4.20
2018-06-13T03:15:39.208Z,4.20
2018-06-13T03:18:09.584Z,3.63
2018-06-13T03:20:40.020Z,4.50
2018-06-13T03:23:10.194Z,3.93
2018-06-13T03:25:40.904Z,4.03
2018-06-13T03:28:11.085Z,4.10
2018-06-13T03:30:41.222Z,3.70
2018-06-13T03:33:11.533Z,4.33
2018-06-13T03:35:42.599Z,3.60
2018-06-13T03:38:12.869Z,4.23
2018-06-13T03:40:43.313Z,3.60
2018-06-13T03:43:13.553Z,3.90
2018-06-13T03:45:43.985Z,3.97
2018-06-13T03:48:14.115Z,4.23
2018-06-13T03:50:44.844Z,5.00
2018-06-13T03:53:15.219Z,4.00
2018-06-13T03:55:45.530Z,4.10
2018-06-13T03:58:15.805Z,3.23
2018-06-13T04:00:47.651Z,4.20
2018-06-13T04:03:18.144Z,4.07
2018-06-13T04:05:48.312Z,3.10
2018-06-13T04:08:18.815Z,3.27
2018-06-13T04:10:49.401Z,3.40
2018-06-13T04:13:19.731Z,3.20
2018-06-13T04:15:50.513Z,2.80
2018-06-13T04:18:20.880Z,3.50
2018-06-13T04:20:52.639Z,3.50
2018-06-13T04:23:23.282Z,3.57
2018-06-13T04:25:54.106Z,4.17
2018-06-13T04:28:24.608Z,3.70
2018-06-13T04:30:55.134Z,4.77
2018-06-13T04:33:25.530Z,3.40
2018-06-13T04:35:56.221Z,3.40
2018-06-13T04:38:28.370Z,3.37
2018-06-13T04:41:00.959Z,3.27
2018-06-13T04:43:31.823Z,3.77
2018-06-13T04:46:02.334Z,4.00
2018-06-13T04:48:33.311Z,3.43
2018-06-13T04:51:03.492Z,3.53
2018-06-13T04:53:34.546Z,3.50
2018-06-13T04:56:05.197Z,3.60
2018-06-13T04:58:35.859Z,3.63
2018-06-13T05:01:06.285Z,3.40
2018-06-13T05:03:37.190Z,3.60
2018-06-13T05:06:07.757Z,3.30
2018-06-13T05:08:37.842Z,3.20
2018-06-13T05:11:08.294Z,2.90
2018-06-13T05:13:39.219Z,3.53
2018-06-13T05:16:10.363Z,3.33
2018-06-13T05:18:40.970Z,2.83
2018-06-13T05:21:11.697Z,3.10
2018-06-13T05:23:42.199Z,3.20
2018-06-13T05:26:13.008Z,3.20
2018-06-13T05:28:43.940Z,2.87
2018-06-13T05:31:14.466Z,3.43
2018-06-13T05:33:44.814Z,3.03
2018-06-13T05:36:15.174Z,3.37
2018-06-13T05:38:46.140Z,3.50
2018-06-13T05:41:16.733Z,3.10
2018-06-13T05:43:47.055Z,3.57
2018-06-13T05:46:17.621Z,3.17
2018-06-13T05:48:49.272Z,3.90
2018-06-13T05:51:19.770Z,3.60
2018-06-13T05:53:50.026Z,2.60
2018-06-13T05:56:20.543Z,2.90
2018-06-13T05:58:50.987Z,3.10
2018-06-13T06:01:21.309Z,2.70
2018-06-13T06:03:51.876Z,2.50
2018-06-13T06:06:22.178Z,2.50
2018-06-13T06:08:52.018Z,2.17
2018-06-13T06:11:22.314Z,2.70
2018-06-13T06:13:52.535Z,2.40
2018-06-13T06:16:22.739Z,2.63
2018-06-13T06:18:53.237Z,2.37
2018-06-13T06:21:23.727Z,3.10
2018-06-13T06:23:53.383Z,3.20
2018-06-13T06:26:23.721Z,2.80
2018-06-13T06:28:54.418Z,2.70
2018-06-13T06:31:25.270Z,2.67
2018-06-13T06:33:55.593Z,2.97
2018-06-13T06:36:26.169Z,2.70
2018-06-13T06:38:56.613Z,3.17
2018-06-13T06:41:27.190Z,2.50
2018-06-13T06:43:58.052Z,2.70
2018-06-13T06:46:28.605Z,3.07
2018-06-13T06:48:58.896Z,2.77
2018-06-13T06:51:29.165Z,2.53
2018-06-13T06:54:01.113Z,2.83
2018-06-13T06:56:31.297Z,3.10
2018-06-13T06:59:01.826Z,2.93
2018-06-13T07:01:32.340Z,2.40
2018-06-13T07:04:02.517Z,2.23
2018-06-13T07:06:32.873Z,2.00
2018-06-13T07:09:06.601Z,2.43
2018-06-13T07:11:36.977Z,2.20
2018-06-13T07:14:07.660Z,2.17
2018-06-13T07:16:38.281Z,2.50
2018-06-13T07:19:08.784Z,3.53
2018-06-13T07:21:39.267Z,2.70
2018-06-13T07:24:09.800Z,2.43
2018-06-13T07:26:40.067Z,3.00
2018-06-13T07:29:11.058Z,2.80
2018-06-13T07:31:41.397Z,2.63
2018-06-13T07:34:11.693Z,2.60
2018-06-13T07:36:42.245Z,3.63
2018-06-13T07:39:12.800Z,2.23
2018-06-13T07:41:43.285Z,2.80
2018-06-13T07:44:15.377Z,2.77
2018-06-13T07:46:46.102Z,3.87
2018-06-13T07:49:16.718Z,2.80
2018-06-13T07:51:46.568Z,2.90
2018-06-13T07:54:17.514Z,2.60
2018-06-13T07:56:47.960Z,2.80
2018-06-13T07:59:18.356Z,3.00
2018-06-13T08:01:48.709Z,3.10
2018-06-13T08:04:19.151Z,3.13
2018-06-13T08:06:49.378Z,2.80
2018-06-13T08:09:19.809Z,2.90
2018-06-13T08:11:50.394Z,2.70
2018-06-13T08:14:20.211Z,3.10
2018-06-13T08:16:50.350Z,3.33
2018-06-13T08:19:23.348Z,3.07
2018-06-13T08:21:53.858Z,3.17
2018-06-13T08:24:24.376Z,3.70
2018-06-13T08:26:55.597Z,2.90
2018-06-13T08:29:26.077Z,3.00
2018-06-13T08:31:56.659Z,3.60
2018-06-13T08:34:26.542Z,3.50
2018-06-13T08:36:56.341Z,3.50
2018-06-13T08:39:26.601Z,3.77
2018-06-13T08:41:57.221Z,4.40
2018-06-13T08:44:27.957Z,4.80
2018-06-13T08:46:58.398Z,3.90
2018-06-13T08:49:28.698Z,3.53
2018-06-13T08:51:58.934Z,3.50
2018-06-13T08:54:29.205Z,2.93
2018-06-13T08:56:59.384Z,2.87
2018-06-13T08:59:30.120Z,3.10
2018-06-13T09:02:00.186Z,3.40
2018-06-13T09:04:31.170Z,3.40
2018-06-13T09:07:01.738Z,3.70
2018-06-13T09:09:32.755Z,2.97
2018-06-13T09:12:03.603Z,3.10
2018-06-13T09:14:33.837Z,3.30
2018-06-13T09:17:04.207Z,2.57
2018-06-13T09:19:35.522Z,2.40
2018-06-13T09:22:08.325Z,2.27
2018-06-13T09:24:42.332Z,2.70
2018-06-13T09:27:16.183Z,2.10
2018-06-13T09:29:49.726Z,2.43
2018-06-13T09:32:23.914Z,2.60
2018-06-13T09:35:00.406Z,2.10
2018-06-13T09:37:32.088Z,2.00
2018-06-13T09:40:02.795Z,2.80
2018-06-13T09:42:33.029Z,2.17
2018-06-13T09:45:03.751Z,2.70
2018-06-13T09:47:34.103Z,2.70
2018-06-13T09:50:04.341Z,2.60
2018-06-13T09:52:34.709Z,2.60
2018-06-13T09:55:05.542Z,2.30
2018-06-13T09:57:36.105Z,2.60
2018-06-13T10:01:15.538Z,2.50
2018-06-13T10:03:45.986Z,2.30
2018-06-13T10:06:16.829Z,2.67
2018-06-13T10:08:47.493Z,2.40
2018-06-13T10:11:18.299Z,2.80
2018-06-13T10:13:48.652Z,2.90
2018-06-13T10:16:19.034Z,2.37
2018-06-13T10:18:49.790Z,2.83
2018-06-13T10:21:20.457Z,2.27
2018-06-13T10:23:50.908Z,2.50
2018-06-13T10:26:21.001Z,2.60
2018-06-13T10:28:52.434Z,2.83
2018-06-13T10:31:22.454Z,2.20
2018-06-13T10:33:52.245Z,3.50
2018-06-13T10:36:22.633Z,2.30
2018-06-13T10:38:52.896Z,2.27
2018-06-13T10:41:23.169Z,2.10
2018-06-13T10:43:55.897Z,2.40
2018-06-13T10:46:26.143Z,2.90
2018-06-13T10:48:56.866Z,2.53
2018-06-13T10:51:27.617Z,2.43
2018-06-13T10:53:58.057Z,1.97
2018-06-13T10:56:28.352Z,2.07
2018-06-13T10:58:58.792Z,2.20
2018-06-13T11:01:34.442Z,2.97
2018-06-13T11:04:04.771Z,2.73
2018-06-13T11:06:35.425Z,2.67
2018-06-13T11:09:08.429Z,2.50
2018-06-13T11:11:38.770Z,2.37
2018-06-13T11:14:09.317Z,2.60
2018-06-13T11:16:39.621Z,2.67
2018-06-13T11:19:10.073Z,2.63
2018-06-13T11:21:40.757Z,2.23
2018-06-13T11:24:11.083Z,2.60
2018-06-13T11:26:41.806Z,2.20
2018-06-13T11:29:11.875Z,2.90
2018-06-13T11:31:43.582Z,2.97
2018-06-13T11:34:13.956Z,2.60
2018-06-13T11:36:43.985Z,2.87
2018-06-13T11:39:14.411Z,3.20
2018-06-13T11:41:46.529Z,2.83
2018-06-13T11:44:17.037Z,2.67
2018-06-13T11:46:47.341Z,2.50
2018-06-13T11:49:17.595Z,3.37
2018-06-13T11:51:48.373Z,3.07
2018-06-13T11:54:18.565Z,2.50
2018-06-13T11:56:49.044Z,2.97
2018-06-13T11:59:20.202Z,3.17
2018-06-13T12:01:51.597Z,3.30
2018-06-13T12:04:23.990Z,2.50
2018-06-13T12:07:02.184Z,2.83
2018-06-13T12:09:43.157Z,3.33
2018-06-13T12:12:13.971Z,2.40
2018-06-13T12:14:44.757Z,2.70
2018-06-13T12:17:15.428Z,3.13
2018-06-13T12:19:46.503Z,3.00
2018-06-13T12:22:17.164Z,2.70
2018-06-13T12:24:47.645Z,2.30
2018-06-13T12:27:18.386Z,3.00
2018-06-13T12:29:48.837Z,2.90
2018-06-13T12:32:20.487Z,2.80
2018-06-13T12:34:50.880Z,2.60
2018-06-13T12:37:21.420Z,2.60
2018-06-13T12:39:52.012Z,2.20
2018-06-13T12:42:22.786Z,2.60
2018-06-13T12:44:53.296Z,2.63
2018-06-13T12:47:24.557Z,2.30
2018-06-13T12:49:55.150Z,2.50
2018-06-13T12:52:25.854Z,2.30
2018-06-13T12:54:56.270Z,2.40
2018-06-13T12:57:26.722Z,2.97
2018-06-13T12:59:57.243Z,2.33
2018-06-13T13:02:27.503Z,2.43
2018-06-13T13:04:58.077Z,2.60
2018-06-13T13:07:29.225Z,2.67
2018-06-13T13:10:00.300Z,2.23
2018-06-13T13:12:31.027Z,2.57
2018-06-13T13:15:01.223Z,2.70
2018-06-13T13:17:32.022Z,2.77
2018-06-13T13:20:02.253Z,2.80
2018-06-13T13:22:32.453Z,2.40
2018-06-13T13:25:03.004Z,2.43
2018-06-13T13:27:33.783Z,2.67
2018-06-13T13:30:04.521Z,2.50
2018-06-13T13:32:36.602Z,2.33
2018-06-13T13:35:07.195Z,2.53
2018-06-13T13:37:37.393Z,2.57
2018-06-13T13:40:08.161Z,2.60
2018-06-13T13:42:38.228Z,2.87
2018-06-13T13:45:08.450Z,2.27
2018-06-13T13:47:39.098Z,2.30
2018-06-13T13:50:10.046Z,2.50
2018-06-13T13:52:40.707Z,2.43
2018-06-13T13:55:11.197Z,2.57
2018-06-13T13:57:41.577Z,2.53
2018-06-13T14:00:12.242Z,2.67
2018-06-13T14:02:43.970Z,2.60
2018-06-13T14:05:14.269Z,2.57
2018-06-13T14:07:44.640Z,2.47
2018-06-13T14:10:16.659Z,2.57
2018-06-13T14:12:47.031Z,2.50
2018-06-13T14:15:17.383Z,2.87
2018-06-13T14:17:47.901Z,2.13
2018-06-13T14:20:18.666Z,2.67
2018-06-13T14:22:49.689Z,2.57
2018-06-13T14:25:20.116Z,2.40
2018-06-13T14:27:51.050Z,2.80
2018-06-13T14:30:21.376Z,2.40
2018-06-13T14:32:51.752Z,2.60
2018-06-13T14:35:22.034Z,2.43
2018-06-13T14:37:52.862Z,2.47
2018-06-13T14:40:23.848Z,2.47
2018-06-13T14:42:54.297Z,2.50
2018-06-13T14:45:25.427Z,2.77
2018-06-13T14:47:56.063Z,2.63
2018-06-13T14:50:27.490Z,2.40
2018-06-13T14:52:58.284Z,2.70
2018-06-13T14:55:28.602Z,2.90
2018-06-13T14:57:59.107Z,2.30
2018-06-13T15:00:29.096Z,2.77
2018-06-13T15:02:59.958Z,2.43
2018-06-13T15:05:30.406Z,2.90
2018-06-13T15:08:00.679Z,2.70
2018-06-13T15:10:30.872Z,2.40
2018-06-13T15:13:01.287Z,2.40
2018-06-13T15:15:31.838Z,2.30
2018-06-13T15:18:02.425Z,2.57
2018-06-13T15:20:33.357Z,3.90
2018-06-13T15:23:03.394Z,3.50
2018-06-13T15:25:33.701Z,2.77
2018-06-13T15:28:04.641Z,2.83
2018-06-13T15:30:35.171Z,2.80
2018-06-13T15:33:06.163Z,2.77
2018-06-13T15:35:36.351Z,2.90
2018-06-13T15:38:06.764Z,2.93
2018-06-13T15:40:36.689Z,2.40
2018-06-13T15:43:07.125Z,3.77
2018-06-13T15:45:38.785Z,2.50
2018-06-13T15:48:09.120Z,2.90
2018-06-13T15:50:38.976Z,2.60
2018-06-13T15:53:13.122Z,2.60
2018-06-13T15:55:43.582Z,2.50
2018-06-13T15:58:20.482Z,2.80
2018-06-13T16:00:50.975Z,3.50
2018-06-13T16:03:22.739Z,3.20
2018-06-13T16:05:53.243Z,2.63
2018-06-13T16:08:23.681Z,2.27
2018-06-13T16:10:54.048Z,2.50
2018-06-13T16:13:24.540Z,2.50
2018-06-13T16:15:55.101Z,2.10
2018-06-13T16:18:25.529Z,2.50
2018-06-13T16:20:56.105Z,3.03
2018-06-13T16:23:26.513Z,3.53
2018-06-13T16:25:57.089Z,4.10
2018-06-13T16:28:28.998Z,4.80
2018-06-13T16:30:59.040Z,3.73
2018-06-13T16:33:29.180Z,3.70
2018-06-13T16:35:59.495Z,3.20
2018-06-13T16:38:29.936Z,3.10
2018-06-13T16:41:00.325Z,2.90
2018-06-13T16:43:31.110Z,2.77
2018-06-13T16:46:01.347Z,2.77
2018-06-13T16:48:31.907Z,2.30
2018-06-13T16:51:14.884Z,2.03
2018-06-13T16:53:52.003Z,2.20
2018-06-13T16:56:22.621Z,2.13
2018-06-13T16:58:53.492Z,2.20
2018-06-13T17:01:23.929Z,2.30
2018-06-13T17:03:54.941Z,2.30
2018-06-13T17:06:24.971Z,2.60
2018-06-13T17:08:55.112Z,2.47
2018-06-13T17:11:26.400Z,2.17
2018-06-13T17:13:57.526Z,2.17
2018-06-13T17:16:29.330Z,2.00
2018-06-13T17:19:01.116Z,2.10
2018-06-13T17:21:34.361Z,2.50
2018-06-13T17:24:06.018Z,2.13
2018-06-13T17:26:36.253Z,1.90
2018-06-13T17:29:07.273Z,2.53
2018-06-13T17:31:37.942Z,2.30
2018-06-13T17:34:09.828Z,2.60
2018-06-13T17:36:40.768Z,2.93
2018-06-13T17:39:12.221Z,2.53
2018-06-13T17:41:43.691Z,2.50
2018-06-13T17:44:15.158Z,2.50
2018-06-13T17:46:46.072Z,2.77
2018-06-13T17:49:17.513Z,2.40
2018-06-13T17:51:48.111Z,2.43
2018-06-13T17:54:19.122Z,2.37
2018-06-13T17:56:51.938Z,2.80
2018-06-13T17:59:23.812Z,2.53
2018-06-13T18:01:54.501Z,2.00
2018-06-13T18:04:25.228Z,2.77
2018-06-13T18:06:58.193Z,2.37
2018-06-13T18:09:28.619Z,2.33
2018-06-13T18:11:59.226Z,2.50
2018-06-13T18:14:29.744Z,2.40
2018-06-13T18:17:00.375Z,2.23
2018-06-13T18:19:30.793Z,2.30
2018-06-13T18:22:01.202Z,2.00
2018-06-13T18:24:34.465Z,3.83
2018-06-13T18:27:04.944Z,2.10
2018-06-13T18:29:35.418Z,2.70
2018-06-13T18:32:06.710Z,2.77
2018-06-13T18:34:37.059Z,2.80
2018-06-13T18:37:07.152Z,2.20
2018-06-13T18:39:39.386Z,2.33
2018-06-13T18:42:09.944Z,2.70
2018-06-13T18:44:40.755Z,2.33
2018-06-13T18:47:11.774Z,2.40
2018-06-13T18:49:42.153Z,2.20
2018-06-13T18:52:12.786Z,2.30
2018-06-13T18:54:43.165Z,2.43
2018-06-13T18:57:15.593Z,2.80
2018-06-13T18:59:46.318Z,2.60
2018-06-13T19:02:17.967Z,1.90
2018-06-13T19:04:48.157Z,2.10
2018-06-13T19:07:18.701Z,2.63
2018-06-13T19:09:49.343Z,2.37
2018-06-13T19:12:19.954Z,2.63
2018-06-13T19:14:50.597Z,2.57
2018-06-13T19:17:21.009Z,2.80
2018-06-13T19:19:51.848Z,2.30
2018-06-13T19:22:22.616Z,2.77
2018-06-13T19:24:53.598Z,2.50
2018-06-13T19:27:24.181Z,2.80
2018-06-13T19:29:54.957Z,2.83
2018-06-13T19:32:28.574Z,2.30
2018-06-13T19:34:59.036Z,2.83
2018-06-13T19:37:29.772Z,2.70
2018-06-13T19:40:00.270Z,2.73
2018-06-13T19:42:30.689Z,2.83
2018-06-13T19:45:01.179Z,2.73
2018-06-13T19:47:36.909Z,3.13
2018-06-13T19:50:07.718Z,2.60
2018-06-13T19:52:44.489Z,3.00
2018-06-13T19:55:20.658Z,3.30
2018-06-13T19:57:51.148Z,4.40
2018-06-13T20:00:21.950Z,4.20
2018-06-13T20:02:57.869Z,4.23
2018-06-13T20:05:34.129Z,3.77
2018-06-13T20:08:04.480Z,4.27
2018-06-13T20:10:35.013Z,4.00
2018-06-13T20:13:10.860Z,3.40
2018-06-13T20:15:47.676Z,5.27
2018-06-13T20:18:25.215Z,4.70
2018-06-13T20:20:55.738Z,4.07
2018-06-13T20:23:26.580Z,3.67
2018-06-13T20:26:02.121Z,5.13
2018-06-13T20:28:37.945Z,4.33
2018-06-13T20:31:13.644Z,4.50
2018-06-13T20:33:44.167Z,3.70
2018-06-13T20:36:14.921Z,4.43
2018-06-13T20:38:45.313Z,4.00
2018-06-13T20:41:16.061Z,3.70
2018-06-13T20:43:46.606Z,3.20
2018-06-13T20:46:16.839Z,3.17
2018-06-13T20:48:47.875Z,3.07
2018-06-13T20:51:18.696Z,3.00
2018-06-13T20:53:48.934Z,3.50
2018-06-13T20:56:19.406Z,2.90
2018-06-13T20:58:49.943Z,3.00
2018-06-13T21:01:20.420Z,3.43
2018-06-13T21:03:51.054Z,3.10
2018-06-13T21:06:22.139Z,3.37
2018-06-13T21:08:52.521Z,2.80
2018-06-13T21:11:23.118Z,3.20
2018-06-13T21:13:53.598Z,3.40
2018-06-13T21:16:25.618Z,3.07
2018-06-13T21:18:55.994Z,3.17
2018-06-13T21:21:26.707Z,3.17
2018-06-13T21:23:56.997Z,3.23
2018-06-13T21:26:27.706Z,3.50
2018-06-13T21:28:58.153Z,3.43
2018-06-13T21:31:28.785Z,3.37
2018-06-13T21:33:59.461Z,3.40
2018-06-13T21:36:29.845Z,3.50
2018-06-13T21:39:00.177Z,3.60
2018-06-13T21:41:31.109Z,3.20
2018-06-13T21:44:03.048Z,3.30
2018-06-13T21:46:33.488Z,3.30
2018-06-13T21:49:04.079Z,3.67
2018-06-13T21:51:34.750Z,3.50
2018-06-13T21:54:05.338Z,3.60
2018-06-13T21:56:35.803Z,3.60
2018-06-13T21:59:06.397Z,3.10
2018-06-13T22:01:36.723Z,3.27
2018-06-13T22:04:07.322Z,3.60
2018-06-13T22:06:37.966Z,3.00
2018-06-13T22:09:10.092Z,3.70
2018-06-13T22:11:46.102Z,4.27
2018-06-13T22:14:16.732Z,3.70
2018-06-13T22:16:47.523Z,3.23
2018-06-13T22:19:17.809Z,4.10
2018-06-13T22:21:48.089Z,4.07
2018-06-13T22:24:18.854Z,3.53
2018-06-13T22:26:49.589Z,3.80
2018-06-13T22:29:19.504Z,4.07
2018-06-13T22:31:49.655Z,4.13
2018-06-13T22:34:20.049Z,3.33
2018-06-13T22:36:50.362Z,3.50
2018-06-13T22:39:20.730Z,4.13
2018-06-13T22:41:51.270Z,3.40
2018-06-13T22:44:21.470Z,3.90
2018-06-13T22:46:51.867Z,3.20
2018-06-13T22:49:22.815Z,3.83
2018-06-13T22:51:53.103Z,4.20
2018-06-13T22:54:23.289Z,3.60
2018-06-13T22:56:53.684Z,3.20
2018-06-13T22:59:24.186Z,3.57
2018-06-13T23:01:54.513Z,3.67
2018-06-13T23:04:25.224Z,3.67
2018-06-13T23:06:55.588Z,3.83
2018-06-13T23:09:26.118Z,3.70
2018-06-13T23:11:56.723Z,3.47
2018-06-13T23:14:27.086Z,3.67
2018-06-13T23:16:57.503Z,4.20
2018-06-13T23:19:27.943Z,4.57
2018-06-13T23:21:58.433Z,3.80
2018-06-13T23:24:28.565Z,3.77
2018-06-13T23:26:59.425Z,3.70
2018-06-13T23:29:29.885Z,4.10
2018-06-13T23:32:00.265Z,5.67
2018-06-13T23:34:30.794Z,4.47
2018-06-13T23:37:01.677Z,5.00
2018-06-13T23:39:32.305Z,4.93
2018-06-13T23:42:02.788Z,4.10
2018-06-13T23:44:32.979Z,4.53
2018-06-13T23:47:03.202Z,4.20
2018-06-13T23:49:33.396Z,4.10
2018-06-13T23:52:03.918Z,4.00
2018-06-13T23:54:33.992Z,3.70
2018-06-13T23:57:04.507Z,4.00
2018-06-13T23:59:35.377Z,5.10
